createdAt,value
2019-01-25T00:01:13.414Z,-3.00
2019-01-25T00:03:41.947Z,-3.00
2019-01-25T00:06:31.264Z,-3.00
2019-01-25T00:08:59.802Z,-3.00
2019-01-25T00:11:28.241Z,-3.00
2019-01-25T00:13:56.711Z,-3.00
2019-01-25T00:16:25.159Z,-3.00
2019-01-25T00:18:53.620Z,-3.10
2019-01-25T00:21:22.060Z,-3.00
2019-01-25T00:23:50.550Z,-3.00
2019-01-25T00:26:19.142Z,-3.00
2019-01-25T00:28:47.646Z,-3.10
2019-01-25T00:31:16.681Z,-3.00
2019-01-25T00:33:45.150Z,-3.00
2019-01-25T00:36:13.723Z,-3.10
2019-01-25T00:38:42.320Z,-3.00
2019-01-25T00:41:10.834Z,-3.00
2019-01-25T00:43:39.298Z,-3.10
2019-01-25T00:46:07.816Z,-3.10
2019-01-25T00:48:56.572Z,-3.00
2019-01-25T00:51:25.144Z,-3.00
2019-01-25T00:54:12.947Z,-3.00
2019-01-25T00:56:41.405Z,-3.00
2019-01-25T00:59:09.867Z,-3.00
2019-01-25T01:01:38.317Z,-3.00
2019-01-25T01:04:06.851Z,-3.00
2019-01-25T01:06:35.364Z,-3.10
2019-01-25T01:09:05.522Z,-3.10
2019-01-25T01:11:33.970Z,-3.30
2019-01-25T01:14:02.444Z,-3.40
2019-01-25T01:16:30.899Z,-3.60
2019-01-25T01:18:59.359Z,-3.70
2019-01-25T01:21:27.796Z,-3.80
2019-01-25T01:23:56.261Z,-3.80
2019-01-25T01:26:24.705Z,-3.70
2019-01-25T01:28:53.169Z,-3.70
2019-01-25T01:31:40.948Z,-3.60
2019-01-25T01:34:09.415Z,-3.60
2019-01-25T01:36:37.861Z,-3.50
2019-01-25T01:39:07.362Z,-3.60
2019-01-25T01:41:35.801Z,-3.50
2019-01-25T01:44:04.980Z,-3.40
2019-01-25T01:46:33.547Z,-3.30
2019-01-25T01:49:02.091Z,-3.30
2019-01-25T01:51:30.607Z,-3.30
2019-01-25T01:53:59.067Z,-3.20
2019-01-25T01:56:27.511Z,-3.20
2019-01-25T01:58:55.983Z,-3.20
2019-01-25T02:01:24.455Z,-3.10
2019-01-25T02:04:12.255Z,-3.10
2019-01-25T02:06:40.699Z,-3.20
2019-01-25T02:09:09.249Z,-3.20
2019-01-25T02:11:37.786Z,-3.20
2019-01-25T02:14:06.441Z,-3.20
2019-01-25T02:16:34.910Z,-3.20
2019-01-25T02:19:03.353Z,-3.20
2019-01-25T02:21:31.814Z,-3.10
2019-01-25T02:24:00.262Z,-3.10
2019-01-25T02:26:28.798Z,-3.10
2019-01-25T02:28:57.251Z,-3.10
2019-01-25T02:31:25.712Z,-3.20
2019-01-25T02:33:54.226Z,-3.10
2019-01-25T02:36:22.673Z,-3.10
2019-01-25T02:38:51.133Z,-3.10
2019-01-25T02:41:19.567Z,-3.10
2019-01-25T02:43:48.030Z,-3.20
2019-01-25T02:46:16.475Z,-3.20
2019-01-25T02:48:44.933Z,-3.10
2019-01-25T02:51:13.379Z,-3.20
2019-01-25T02:53:41.822Z,-3.20
2019-01-25T02:56:29.628Z,-3.20
2019-01-25T02:58:58.099Z,-3.30
2019-01-25T03:01:26.580Z,-3.50
2019-01-25T03:03:55.157Z,-3.50
2019-01-25T03:06:23.785Z,-3.50
2019-01-25T03:08:52.219Z,-3.50
2019-01-25T03:11:20.688Z,-3.60
2019-01-25T03:13:49.207Z,-3.60
2019-01-25T03:16:17.783Z,-3.70
2019-01-25T03:18:49.000Z,-3.60
2019-01-25T03:21:17.440Z,-3.70
2019-01-25T03:23:45.883Z,-3.70
2019-01-25T03:26:14.431Z,-3.70
2019-01-25T03:28:42.927Z,-3.90
2019-01-25T03:31:11.404Z,-4.00
2019-01-25T03:33:39.903Z,-4.00
2019-01-25T03:36:08.420Z,-4.10
2019-01-25T03:38:36.961Z,-4.20
2019-01-25T03:41:25.011Z,-4.20
2019-01-25T03:44:12.916Z,-4.30
2019-01-25T03:46:41.399Z,-4.40
2019-01-25T03:49:09.975Z,-4.50
2019-01-25T03:51:38.435Z,-4.60
2019-01-25T03:54:07.091Z,-4.70
2019-01-25T03:56:54.959Z,-4.80
2019-01-25T03:59:23.543Z,-4.80
2019-01-25T04:01:52.003Z,-4.90
2019-01-25T04:04:20.447Z,-5.00
2019-01-25T04:06:48.958Z,-5.00
2019-01-25T04:09:17.507Z,-5.10
2019-01-25T04:11:45.946Z,-5.00
2019-01-25T04:14:14.444Z,-5.10
2019-01-25T04:17:02.219Z,-5.20
2019-01-25T04:19:50.033Z,-5.30
2019-01-25T04:22:18.467Z,-5.40
2019-01-25T04:24:46.939Z,-5.40
2019-01-25T04:27:15.463Z,-5.50
2019-01-25T04:29:43.915Z,-5.60
2019-01-25T04:32:12.448Z,-5.70
2019-01-25T04:34:40.922Z,-5.80
2019-01-25T04:37:09.451Z,-5.90
2019-01-25T04:39:37.911Z,-6.10
2019-01-25T04:42:06.505Z,-6.10
2019-01-25T04:44:37.929Z,-6.20
2019-01-25T04:47:06.408Z,-6.20
2019-01-25T04:49:36.153Z,-6.40
2019-01-25T04:52:09.546Z,-6.40
2019-01-25T04:57:22.520Z,-6.40
2019-01-25T04:59:52.664Z,-6.40
2019-01-25T05:02:21.108Z,-6.40
2019-01-25T05:04:49.554Z,-6.50
2019-01-25T05:07:18.089Z,-6.60
2019-01-25T05:09:46.526Z,-6.60
2019-01-25T05:12:14.990Z,-6.60
2019-01-25T05:14:43.499Z,-6.70
2019-01-25T05:17:11.965Z,-6.90
2019-01-25T05:19:40.479Z,-7.00
2019-01-25T05:22:08.995Z,-7.10
2019-01-25T05:24:56.895Z,-7.20
2019-01-25T05:27:25.337Z,-7.20
2019-01-25T05:29:54.615Z,-7.20
2019-01-25T05:32:23.085Z,-7.40
2019-01-25T05:34:51.613Z,-7.50
2019-01-25T05:37:20.119Z,-7.40
2019-01-25T05:40:28.647Z,-7.50
2019-01-25T05:42:57.086Z,-7.50
2019-01-25T05:45:25.556Z,-7.50
2019-01-25T05:47:53.996Z,-7.50
2019-01-25T05:50:41.868Z,-7.20
2019-01-25T05:53:10.557Z,-7.30
2019-01-25T05:55:39.005Z,-7.30
2019-01-25T05:58:09.009Z,-7.30
2019-01-25T06:00:39.093Z,-7.40
2019-01-25T06:03:10.137Z,-7.50
2019-01-25T06:05:38.814Z,-7.50
2019-01-25T06:08:14.122Z,-7.50
2019-01-25T06:10:42.592Z,-7.50
2019-01-25T06:13:11.036Z,-7.60
2019-01-25T06:15:39.495Z,-7.60
2019-01-25T06:18:07.938Z,-7.50
2019-01-25T06:20:36.408Z,-7.50
2019-01-25T06:23:04.991Z,-7.50
2019-01-25T06:25:33.463Z,-7.40
2019-01-25T06:28:05.052Z,-7.40
2019-01-25T06:30:33.493Z,-7.40
2019-01-25T06:33:01.955Z,-7.20
2019-01-25T06:35:30.484Z,-7.10
2019-01-25T06:37:58.926Z,-7.10
2019-01-25T06:40:27.394Z,-7.10
2019-01-25T06:42:55.835Z,-7.20
2019-01-25T06:45:24.302Z,-7.20
2019-01-25T06:48:12.075Z,-7.20
2019-01-25T06:50:46.674Z,-7.10
2019-01-25T06:53:15.166Z,-7.00
2019-01-25T06:55:43.743Z,-6.90
2019-01-25T06:58:13.848Z,-6.80
2019-01-25T07:00:44.360Z,-6.70
2019-01-25T07:03:12.801Z,-6.70
2019-01-25T07:05:41.347Z,-6.60
2019-01-25T07:08:11.435Z,-6.50
2019-01-25T07:10:39.913Z,-6.40
2019-01-25T07:13:08.411Z,-6.20
2019-01-25T07:15:36.877Z,-6.00
2019-01-25T07:18:05.392Z,-5.90
2019-01-25T07:20:33.901Z,-5.80
2019-01-25T07:23:02.366Z,-5.70
2019-01-25T07:25:30.818Z,-5.70
2019-01-25T07:27:59.262Z,-5.60
2019-01-25T07:30:27.732Z,-5.50
2019-01-25T07:32:56.247Z,-5.30
2019-01-25T07:35:24.706Z,-5.30
2019-01-25T07:37:53.337Z,-5.20
2019-01-25T07:40:21.920Z,-5.10
2019-01-25T07:42:50.430Z,-5.10
2019-01-25T07:45:18.966Z,-5.10
2019-01-25T07:47:47.472Z,-5.00
2019-01-25T07:50:16.065Z,-5.00
2019-01-25T07:52:44.621Z,-4.90
2019-01-25T07:55:13.768Z,-5.00
2019-01-25T07:57:42.203Z,-4.90
2019-01-25T08:00:16.326Z,-5.00
2019-01-25T08:02:44.987Z,-5.00
2019-01-25T08:05:13.726Z,-5.20
2019-01-25T08:07:42.243Z,-5.30
2019-01-25T08:10:13.798Z,-5.30
2019-01-25T08:12:42.630Z,-5.20
2019-01-25T08:15:19.909Z,-5.30
2019-01-25T08:17:48.549Z,-5.20
2019-01-25T08:20:38.181Z,-5.00
2019-01-25T08:23:06.688Z,-4.90
2019-01-25T08:25:35.220Z,-5.00
2019-01-25T08:28:03.747Z,-4.90
2019-01-25T08:30:32.340Z,-4.70
2019-01-25T08:33:00.970Z,-4.70
2019-01-25T08:35:29.500Z,-4.60
2019-01-25T08:37:58.015Z,-4.60
2019-01-25T08:40:26.454Z,-4.50
2019-01-25T08:42:54.971Z,-4.50
2019-01-25T08:45:23.535Z,-4.30
2019-01-25T08:47:51.999Z,-4.20
2019-01-25T08:50:39.882Z,-4.20
2019-01-25T08:53:08.481Z,-4.00
2019-01-25T08:55:37.039Z,-3.90
2019-01-25T08:58:05.864Z,-3.90
2019-01-25T09:00:34.454Z,-4.00
2019-01-25T09:03:03.043Z,-3.90
2019-01-25T09:05:31.495Z,-3.80
2019-01-25T09:08:00.002Z,-3.90
2019-01-25T09:10:28.526Z,-3.80
2019-01-25T09:12:57.053Z,-3.80
2019-01-25T09:15:31.140Z,-3.70
2019-01-25T09:17:59.655Z,-3.60
2019-01-25T09:20:28.192Z,-3.50
2019-01-25T09:22:56.626Z,-3.40
2019-01-25T09:25:25.135Z,-3.40
2019-01-25T09:27:53.741Z,-3.20
2019-01-25T09:30:26.844Z,-3.00
2019-01-25T09:32:55.414Z,-3.20
2019-01-25T09:35:24.049Z,-3.20
2019-01-25T09:37:52.929Z,-2.80
2019-01-25T09:40:26.905Z,-2.70
2019-01-25T09:42:55.434Z,-2.60
2019-01-25T09:45:24.015Z,-2.40
2019-01-25T09:47:52.728Z,-2.50
2019-01-25T09:50:22.611Z,-2.80
2019-01-25T09:52:51.138Z,-2.70
2019-01-25T09:55:24.256Z,-2.40
2019-01-25T09:57:54.141Z,-2.00
2019-01-25T10:00:34.778Z,-1.70
2019-01-25T10:03:03.293Z,-1.50
2019-01-25T10:05:31.880Z,-1.20
2019-01-25T10:08:00.409Z,-1.20
2019-01-25T10:10:28.999Z,-1.40
2019-01-25T10:12:57.538Z,-1.60
2019-01-25T10:15:29.071Z,-1.40
2019-01-25T10:17:57.631Z,-1.20
2019-01-25T10:20:26.419Z,-0.90
2019-01-25T10:22:54.941Z,-0.70
2019-01-25T10:25:23.580Z,-0.80
2019-01-25T10:27:52.255Z,-0.60
2019-01-25T10:30:28.032Z,-0.80
2019-01-25T10:32:56.550Z,-0.70
2019-01-25T10:35:25.157Z,-0.70
2019-01-25T10:37:53.849Z,-0.70
2019-01-25T10:40:23.409Z,-0.80
2019-01-25T10:42:53.369Z,-0.80
2019-01-25T10:45:28.312Z,-0.80
2019-01-25T10:47:56.803Z,-0.80
2019-01-25T10:50:25.257Z,-0.80
2019-01-25T10:52:53.859Z,-0.70
2019-01-25T10:55:22.579Z,-0.80
2019-01-25T10:57:51.283Z,-0.90
2019-01-25T11:00:24.646Z,-0.90
2019-01-25T11:02:58.126Z,-0.90
2019-01-25T11:05:28.460Z,-0.80
2019-01-25T11:07:56.971Z,-0.80
2019-01-25T11:10:25.759Z,-0.70
2019-01-25T11:13:00.761Z,-0.80
2019-01-25T11:15:25.425Z,-1.00
2019-01-25T11:17:54.032Z,-0.60
2019-01-25T11:20:24.808Z,-0.80
2019-01-25T11:22:53.473Z,-0.60
2019-01-25T11:25:28.019Z,-0.40
2019-01-25T11:27:56.535Z,-0.20
2019-01-25T11:30:25.111Z,-0.30
2019-01-25T11:32:53.611Z,-0.10
2019-01-25T11:35:22.187Z,0.00
2019-01-25T11:37:50.895Z,0.00
2019-01-25T11:40:40.255Z,0.10
2019-01-25T11:43:09.244Z,0.30
2019-01-25T11:45:38.046Z,0.10
2019-01-25T11:48:09.817Z,0.10
2019-01-25T11:50:38.627Z,0.20
2019-01-25T11:53:07.138Z,0.20
2019-01-25T11:55:35.782Z,-0.10
2019-01-25T11:58:04.659Z,-0.30
2019-01-25T12:00:34.497Z,-0.20
2019-01-25T12:03:02.991Z,-0.10
2019-01-25T12:05:31.516Z,-0.20
2019-01-25T12:08:00.016Z,-0.50
2019-01-25T12:10:47.868Z,-0.50
2019-01-25T12:13:16.567Z,-0.40
2019-01-25T12:15:45.176Z,-0.30
2019-01-25T12:18:13.721Z,-0.40
2019-01-25T12:20:42.298Z,-0.30
2019-01-25T12:23:12.043Z,-0.10
2019-01-25T12:26:00.456Z,-0.20
2019-01-25T12:28:28.988Z,-0.40
2019-01-25T12:30:57.574Z,-0.30
2019-01-25T12:33:46.026Z,-0.20
2019-01-25T12:36:14.580Z,-0.10
2019-01-25T12:38:43.087Z,0.00
2019-01-25T12:41:11.650Z,0.00
2019-01-25T12:43:40.180Z,0.00
2019-01-25T12:46:08.834Z,0.20
2019-01-25T12:48:37.341Z,0.30
2019-01-25T12:51:08.966Z,0.30
2019-01-25T12:53:37.403Z,0.40
2019-01-25T12:56:05.983Z,0.40
2019-01-25T12:58:34.532Z,0.10
2019-01-25T13:01:03.062Z,-0.40
2019-01-25T13:03:44.012Z,-0.40
2019-01-25T13:06:12.599Z,-0.60
2019-01-25T13:08:41.200Z,-0.60
2019-01-25T13:11:09.769Z,-0.50
2019-01-25T13:13:38.223Z,-0.20
2019-01-25T13:16:06.930Z,0.00
2019-01-25T13:18:36.808Z,0.20
2019-01-25T13:21:05.447Z,0.40
2019-01-25T13:23:33.912Z,0.40
2019-01-25T13:26:02.498Z,0.40
2019-01-25T13:28:32.755Z,0.50
2019-01-25T13:31:01.461Z,0.50
2019-01-25T13:33:30.043Z,0.60
2019-01-25T13:35:58.482Z,0.60
2019-01-25T13:38:26.962Z,0.70
2019-01-25T13:40:55.474Z,0.70
2019-01-25T13:43:23.917Z,0.50
2019-01-25T13:45:52.396Z,0.50
2019-01-25T13:48:20.903Z,0.50
2019-01-25T13:50:49.427Z,0.50
2019-01-25T13:53:18.014Z,0.50
2019-01-25T13:56:06.044Z,0.50
2019-01-25T13:58:34.490Z,0.40
2019-01-25T14:01:02.997Z,0.40
2019-01-25T14:03:31.534Z,0.50
2019-01-25T14:05:59.983Z,0.50
2019-01-25T14:08:28.512Z,0.50
2019-01-25T14:11:16.363Z,0.40
2019-01-25T14:13:46.928Z,0.50
2019-01-25T14:16:15.043Z,0.40
2019-01-25T14:19:03.207Z,0.40
2019-01-25T14:21:31.654Z,0.40
2019-01-25T14:24:00.182Z,0.40
2019-01-25T14:26:28.720Z,0.30
2019-01-25T14:32:05.570Z,0.40
2019-01-25T14:34:34.095Z,0.50
2019-01-25T14:37:02.570Z,-0.10
2019-01-25T14:39:31.051Z,0.00
2019-01-25T14:41:59.552Z,0.10
2019-01-25T14:44:28.094Z,0.20
2019-01-25T14:46:56.611Z,0.30
2019-01-25T14:49:25.053Z,0.40
2019-01-25T14:51:53.520Z,0.50
2019-01-25T14:54:41.301Z,0.40
2019-01-25T14:57:09.768Z,0.50
2019-01-25T14:59:57.546Z,0.60
2019-01-25T15:02:32.144Z,0.60
2019-01-25T15:05:00.584Z,0.70
2019-01-25T15:07:29.016Z,0.60
2019-01-25T15:09:57.471Z,0.70
2019-01-25T15:12:25.917Z,0.60
2019-01-25T15:15:14.292Z,0.70
2019-01-25T15:18:02.067Z,0.60
2019-01-25T15:20:30.701Z,0.50
2019-01-25T15:22:59.232Z,0.50
2019-01-25T15:25:30.452Z,0.50
2019-01-25T15:27:58.918Z,0.40
2019-01-25T15:30:29.111Z,0.40
2019-01-25T15:32:57.690Z,0.40
2019-01-25T15:35:26.302Z,0.40
2019-01-25T15:37:54.756Z,0.40
2019-01-25T15:40:23.842Z,0.40
2019-01-25T15:43:11.654Z,0.30
2019-01-25T15:45:40.095Z,0.20
2019-01-25T15:48:08.603Z,0.20
2019-01-25T15:50:37.075Z,0.20
2019-01-25T15:53:05.579Z,0.20
2019-01-25T15:55:34.120Z,0.10
2019-01-25T15:58:02.762Z,0.10
2019-01-25T16:00:31.343Z,0.10
2019-01-25T16:03:00.063Z,0.00
2019-01-25T16:05:28.615Z,0.00
2019-01-25T16:07:57.661Z,0.00
2019-01-25T16:10:26.501Z,-0.10
2019-01-25T16:13:14.287Z,-0.10
2019-01-25T16:15:42.929Z,-0.10
2019-01-25T16:18:11.370Z,-0.10
2019-01-25T16:20:39.851Z,-0.10
2019-01-25T16:23:08.369Z,-0.10
2019-01-25T16:25:36.820Z,-0.20
2019-01-25T16:28:24.631Z,-0.20
2019-01-25T16:30:53.085Z,-0.20
2019-01-25T16:33:21.533Z,-0.20
2019-01-25T16:35:49.998Z,-0.20
2019-01-25T16:38:37.795Z,-0.20
2019-01-25T16:41:06.273Z,-0.20
2019-01-25T16:43:34.730Z,-0.20
2019-01-25T16:46:03.795Z,-0.20
2019-01-25T16:48:32.386Z,-0.20
2019-01-25T16:51:00.842Z,-0.20
2019-01-25T16:53:29.292Z,-0.20
2019-01-25T16:55:57.822Z,-0.20
2019-01-25T16:58:29.580Z,-0.30
2019-01-25T17:01:17.435Z,-0.30
2019-01-25T17:03:45.891Z,-0.20
2019-01-25T17:06:33.696Z,-0.20
2019-01-25T17:09:02.147Z,-0.30
2019-01-25T17:11:30.817Z,-0.30
2019-01-25T17:14:18.599Z,-0.30
2019-01-25T17:16:47.068Z,-0.30
2019-01-25T17:19:15.511Z,-0.30
2019-01-25T17:21:43.963Z,-0.30
2019-01-25T17:24:12.423Z,-0.30
2019-01-25T17:26:40.874Z,-0.30
2019-01-25T17:29:09.328Z,-0.40
2019-01-25T17:31:57.156Z,-0.30
2019-01-25T17:34:25.670Z,-0.30
2019-01-25T17:36:54.201Z,-0.30
2019-01-25T17:39:22.747Z,-0.30
2019-01-25T17:41:51.282Z,-0.30
2019-01-25T17:44:19.800Z,-0.50
2019-01-25T17:47:07.603Z,-0.60
2019-01-25T17:49:37.494Z,-0.60
2019-01-25T17:52:05.943Z,-0.60
2019-01-25T17:54:34.541Z,-0.60
2019-01-25T17:57:03.771Z,-0.50
2019-01-25T17:59:32.511Z,-0.50
2019-01-25T18:02:00.998Z,-0.50
2019-01-25T18:04:29.520Z,-0.40
2019-01-25T18:06:57.958Z,-0.50
2019-01-25T18:09:26.578Z,-0.60
2019-01-25T18:11:55.018Z,-0.60
2019-01-25T18:14:23.493Z,-0.50
2019-01-25T18:16:52.002Z,-0.50
2019-01-25T18:19:39.814Z,-0.50
2019-01-25T18:22:08.397Z,-0.50
2019-01-25T18:24:36.844Z,-0.50
2019-01-25T18:27:05.897Z,-0.50
2019-01-25T18:29:34.677Z,-0.40
2019-01-25T18:32:23.879Z,-0.40
2019-01-25T18:34:52.327Z,-0.40
2019-01-25T18:37:20.856Z,-0.40
2019-01-25T18:39:49.400Z,-0.40
2019-01-25T18:42:18.214Z,-0.40
2019-01-25T18:44:46.662Z,-0.40
2019-01-25T18:47:36.135Z,-0.40
2019-01-25T18:50:10.940Z,-0.40
2019-01-25T18:52:39.462Z,-0.40
2019-01-25T18:55:13.888Z,-0.30
2019-01-25T18:57:47.918Z,-0.30
2019-01-25T19:00:37.223Z,-0.30
2019-01-25T19:03:18.336Z,-0.30
2019-01-25T19:05:46.786Z,-0.40
2019-01-25T19:08:15.251Z,-0.40
2019-01-25T19:10:43.700Z,-0.40
2019-01-25T19:13:12.167Z,-0.40
2019-01-25T19:15:40.614Z,-0.40
2019-01-25T19:18:09.073Z,-0.40
2019-01-25T19:20:37.541Z,-0.40
2019-01-25T19:23:05.992Z,-0.30
2019-01-25T19:25:34.654Z,-0.30
2019-01-25T19:28:03.263Z,-0.30
2019-01-25T19:30:40.514Z,-0.30
2019-01-25T19:33:09.117Z,-0.30
2019-01-25T19:35:37.783Z,-0.30
2019-01-25T19:38:07.591Z,-0.30
2019-01-25T19:40:36.635Z,-0.20
2019-01-25T19:43:07.018Z,-0.20
2019-01-25T19:45:35.703Z,-0.20
2019-01-25T19:48:04.646Z,-0.20
2019-01-25T19:50:33.331Z,-0.20
2019-01-25T19:53:01.872Z,-0.20
2019-01-25T19:55:32.255Z,-0.20
2019-01-25T19:58:02.749Z,-0.20
2019-01-25T20:00:42.374Z,-0.20
2019-01-25T20:03:16.354Z,-0.10
2019-01-25T20:05:44.863Z,-0.10
2019-01-25T20:08:13.414Z,-0.10
2019-01-25T20:10:41.932Z,-0.10
2019-01-25T20:13:12.166Z,-0.10
2019-01-25T20:15:40.682Z,-0.10
2019-01-25T20:18:09.205Z,0.00
2019-01-25T20:20:39.387Z,0.00
2019-01-25T20:23:08.066Z,0.00
2019-01-25T20:25:36.579Z,0.00
2019-01-25T20:28:07.594Z,0.00
2019-01-25T20:30:36.475Z,0.00
2019-01-25T20:33:25.799Z,0.00
2019-01-25T20:35:54.315Z,0.00
2019-01-25T20:38:22.837Z,-0.10
2019-01-25T20:40:51.305Z,-0.10
2019-01-25T20:43:19.799Z,-0.10
2019-01-25T20:45:48.319Z,0.00
2019-01-25T20:48:16.778Z,0.00
2019-01-25T20:50:45.223Z,-0.10
2019-01-25T20:53:14.404Z,0.00
2019-01-25T20:55:43.514Z,0.00
2019-01-25T20:58:12.032Z,-0.10
2019-01-25T21:00:41.102Z,-0.10
2019-01-25T21:03:12.099Z,-0.10
2019-01-25T21:05:40.548Z,-0.10
2019-01-25T21:08:09.254Z,-0.10
2019-01-25T21:10:37.863Z,-0.10
2019-01-25T21:13:06.399Z,-0.10
2019-01-25T21:15:35.596Z,0.00
2019-01-25T21:18:05.153Z,0.00
2019-01-25T21:20:36.219Z,0.00
2019-01-25T21:23:25.546Z,-0.10
2019-01-25T21:25:54.060Z,0.00
2019-01-25T21:28:22.512Z,0.00
2019-01-25T21:30:51.042Z,0.00
2019-01-25T21:33:19.487Z,0.00
2019-01-25T21:35:48.006Z,0.10
2019-01-25T21:38:16.544Z,0.00
2019-01-25T21:40:45.047Z,0.00
2019-01-25T21:43:13.570Z,0.10
2019-01-25T21:45:43.267Z,0.10
2019-01-25T21:48:12.207Z,0.10
2019-01-25T21:51:01.479Z,0.10
2019-01-25T21:53:29.916Z,0.10
2019-01-25T21:55:58.354Z,0.10
2019-01-25T21:58:26.904Z,0.10
2019-01-25T22:00:55.414Z,0.10
2019-01-25T22:03:23.930Z,0.10
2019-01-25T22:05:52.470Z,0.10
2019-01-25T22:08:20.995Z,0.00
2019-01-25T22:10:49.582Z,0.00
2019-01-25T22:13:18.119Z,0.10
2019-01-25T22:15:51.016Z,0.10
2019-01-25T22:18:17.050Z,0.10
2019-01-25T22:20:45.614Z,0.10
2019-01-25T22:23:14.202Z,0.10
2019-01-25T22:25:42.782Z,0.10
2019-01-25T22:28:11.380Z,0.10
2019-01-25T22:30:39.890Z,0.10
2019-01-25T22:33:08.407Z,0.00
2019-01-25T22:35:36.863Z,0.00
2019-01-25T22:38:05.306Z,0.00
2019-01-25T22:40:34.289Z,0.00
2019-01-25T22:43:02.764Z,0.00
2019-01-25T22:45:31.272Z,0.00
2019-01-25T22:48:00.512Z,0.00
2019-01-25T22:50:31.572Z,0.00
2019-01-25T22:53:00.198Z,0.00
2019-01-25T22:55:28.789Z,0.00
2019-01-25T22:57:57.333Z,-0.10
2019-01-25T23:00:55.176Z,-0.10
2019-01-25T23:03:37.362Z,-0.10
2019-01-25T23:06:46.032Z,0.00
2019-01-25T23:09:33.864Z,0.00
2019-01-25T23:12:02.439Z,0.00
2019-01-25T23:14:30.882Z,0.00
2019-01-25T23:16:59.352Z,0.00
2019-01-25T23:19:27.802Z,0.00
2019-01-25T23:22:15.705Z,0.00
2019-01-25T23:25:04.719Z,0.00
2019-01-25T23:27:33.184Z,0.00
2019-01-25T23:30:01.628Z,0.00
2019-01-25T23:32:30.143Z,0.00
2019-01-25T23:34:58.626Z,-0.10
2019-01-25T23:37:27.144Z,-0.10
2019-01-25T23:39:56.328Z,-0.10
2019-01-25T23:42:24.943Z,-0.10
2019-01-25T23:44:53.408Z,-0.10
2019-01-25T23:47:21.914Z,-0.10
2019-01-25T23:49:50.382Z,-0.10
2019-01-25T23:52:18.826Z,-0.10
2019-01-25T23:54:47.350Z,-0.10
2019-01-25T23:57:15.827Z,0.00
2019-01-25T23:59:44.271Z,-0.10
